sensor_id;sensor_type;location;lat;lon;timestamp;pressure;altitude;pressure_sealevel;temperature;humidity
65897;BME280;52677;50.898;10.854;2022-09-16T00:00:57;97811.16;;;11.08;100.00
65897;BME280;52677;50.898;10.854;2022-09-16T00:02:57;97806.41;;;11.08;100.00
65897;BME280;52677;50.898;10.854;2022-09-16T00:04:58;97807.59;;;11.07;100.00
65897;BME280;52677;50.898;10.854;2022-09-16T00:06:58;97812.34;;;11.07;100.00
65897;BME280;52677;50.898;10.854;2022-09-16T00:08:59;97808.81;;;11.06;100.00
65897;BME280;52677;50.898;10.854;2022-09-16T00:11:00;97810.78;;;11.02;100.00
65897;BME280;52677;50.898;10.854;2022-09-16T00:13:02;97810.41;;;11.04;100.00
65897;BME280;52677;50.898;10.854;2022-09-16T00:15:03;97815.13;;;11.03;100.00
65897;BME280;52677;50.898;10.854;2022-09-16T00:17:04;97816.72;;;11.04;99.32
65897;BME280;52677;50.898;10.854;2022-09-16T00:19:04;97823.44;;;11.03;99.37
65897;BME280;52677;50.898;10.854;2022-09-16T00:21:09;97823.44;;;11.00;99.09
65897;BME280;52677;50.898;10.854;2022-09-16T00:23:09;97812.34;;;11.00;99.10
65897;BME280;52677;50.898;10.854;2022-09-16T00:25:10;97823.44;;;11.00;98.58
65897;BME280;52677;50.898;10.854;2022-09-16T00:27:10;97825.41;;;10.99;98.14
65897;BME280;52677;50.898;10.854;2022-09-16T00:29:10;97811.19;;;10.97;98.25
65897;BME280;52677;50.898;10.854;2022-09-16T00:31:11;97815.53;;;10.98;98.11
65897;BME280;52677;50.898;10.854;2022-09-16T00:33:11;97827.41;;;10.95;97.07
65897;BME280;52677;50.898;10.854;2022-09-16T00:35:11;97816.75;;;10.93;96.84
65897;BME280;52677;50.898;10.854;2022-09-16T00:37:12;97815.16;;;10.92;97.00
65897;BME280;52677;50.898;10.854;2022-09-16T00:39:12;97816.72;;;10.90;97.35
65897;BME280;52677;50.898;10.854;2022-09-16T00:41:18;97821.06;;;10.87;97.11
65897;BME280;52677;50.898;10.854;2022-09-16T00:43:19;97819.50;;;10.86;96.90
65897;BME280;52677;50.898;10.854;2022-09-16T00:45:22;97818.31;;;10.87;96.38
65897;BME280;52677;50.898;10.854;2022-09-16T00:47:31;97818.28;;;10.98;93.93
65897;BME280;52677;50.898;10.854;2022-09-16T00:49:33;97820.28;;;10.97;94.38
65897;BME280;52677;50.898;10.854;2022-09-16T00:51:34;97826.22;;;10.96;93.90
65897;BME280;52677;50.898;10.854;2022-09-16T00:53:42;97817.50;;;10.90;94.46
65897;BME280;52677;50.898;10.854;2022-09-16T00:55:45;97819.50;;;10.93;93.71
65897;BME280;52677;50.898;10.854;2022-09-16T00:57:46;97814.75;;;10.90;94.49
65897;BME280;52677;50.898;10.854;2022-09-16T00:59:50;97828.19;;;10.92;93.89
65897;BME280;52677;50.898;10.854;2022-09-16T01:01:53;97823.84;;;10.91;93.69
65897;BME280;52677;50.898;10.854;2022-09-16T01:03:59;97817.09;;;10.99;91.97
65897;BME280;52677;50.898;10.854;2022-09-16T01:06:01;97819.88;;;10.99;93.07
65897;BME280;52677;50.898;10.854;2022-09-16T01:08:02;97820.66;;;11.00;92.83
65897;BME280;52677;50.898;10.854;2022-09-16T01:10:03;97821.09;;;10.94;93.28
65897;BME280;52677;50.898;10.854;2022-09-16T01:12:04;97823.44;;;10.96;93.44
65897;BME280;52677;50.898;10.854;2022-09-16T01:14:05;97819.88;;;10.92;93.28
65897;BME280;52677;50.898;10.854;2022-09-16T01:16:33;97817.53;;;10.87;94.05
65897;BME280;52677;50.898;10.854;2022-09-16T01:18:59;97816.72;;;10.86;93.86
65897;BME280;52677;50.898;10.854;2022-09-16T01:21:12;97823.06;;;10.87;93.55
65897;BME280;52677;50.898;10.854;2022-09-16T01:23:47;97820.69;;;10.89;93.38
65897;BME280;52677;50.898;10.854;2022-09-16T01:31:13;97825.03;;;11.01;92.73
65897;BME280;52677;50.898;10.854;2022-09-16T01:38:05;97812.75;;;10.84;94.00
65897;BME280;52677;50.898;10.854;2022-09-16T01:41:08;97807.25;;;10.80;94.31
65897;BME280;52677;50.898;10.854;2022-09-16T01:43:06;97809.22;;;10.80;94.55
65897;BME280;52677;50.898;10.854;2022-09-16T01:45:27;97810.41;;;10.79;94.87
65897;BME280;52677;50.898;10.854;2022-09-16T01:47:36;97809.59;;;10.75;94.08
65897;BME280;52677;50.898;10.854;2022-09-16T01:50:01;97819.47;;;10.76;94.01
65897;BME280;52677;50.898;10.854;2022-09-16T01:54:43;97816.75;;;10.68;94.57
65897;BME280;52677;50.898;10.854;2022-09-16T01:56:53;97815.53;;;10.66;93.10
65897;BME280;52677;50.898;10.854;2022-09-16T01:59:04;97812.38;;;10.64;93.93
65897;BME280;52677;50.898;10.854;2022-09-16T02:01:35;97808.44;;;10.61;94.13
65897;BME280;52677;50.898;10.854;2022-09-16T02:03:39;97809.19;;;10.58;93.53
65897;BME280;52677;50.898;10.854;2022-09-16T02:05:50;97811.97;;;10.58;93.18
65897;BME280;52677;50.898;10.854;2022-09-16T02:07:57;97807.63;;;10.57;93.14
65897;BME280;52677;50.898;10.854;2022-09-16T02:10:07;97803.66;;;10.58;93.40
65897;BME280;52677;50.898;10.854;2022-09-16T02:12:13;97810.00;;;10.55;93.62
65897;BME280;52677;50.898;10.854;2022-09-16T02:14:23;97816.34;;;10.52;93.87
65897;BME280;52677;50.898;10.854;2022-09-16T02:16:32;97812.78;;;10.52;94.36
65897;BME280;52677;50.898;10.854;2022-09-16T02:18:38;97811.56;;;10.49;94.48
65897;BME280;52677;50.898;10.854;2022-09-16T02:20:42;97811.97;;;10.48;94.39
65897;BME280;52677;50.898;10.854;2022-09-16T02:23:05;97814.34;;;10.46;95.07
65897;BME280;52677;50.898;10.854;2022-09-16T02:25:09;97808.78;;;10.42;95.11
65897;BME280;52677;50.898;10.854;2022-09-16T02:27:14;97806.81;;;10.39;95.42
65897;BME280;52677;50.898;10.854;2022-09-16T02:29:22;97811.56;;;10.35;95.07
65897;BME280;52677;50.898;10.854;2022-09-16T02:31:28;97810.38;;;10.36;95.21
65897;BME280;52677;50.898;10.854;2022-09-16T02:33:53;97802.06;;;10.39;93.91
65897;BME280;52677;50.898;10.854;2022-09-16T02:35:55;97809.19;;;10.37;94.47
65897;BME280;52677;50.898;10.854;2022-09-16T02:37:58;97809.19;;;10.37;94.00
65897;BME280;52677;50.898;10.854;2022-09-16T02:40:04;97806.81;;;10.39;93.00
65897;BME280;52677;50.898;10.854;2022-09-16T02:42:07;97805.25;;;10.38;93.81
65897;BME280;52677;50.898;10.854;2022-09-16T02:44:08;97806.03;;;10.46;93.04
65897;BME280;52677;50.898;10.854;2022-09-16T02:53:20;97800.06;;;10.22;94.74
65897;BME280;52677;50.898;10.854;2022-09-16T02:55:16;97794.13;;;10.20;94.79
65897;BME280;52677;50.898;10.854;2022-09-16T02:57:21;97802.00;;;10.11;95.71
65897;BME280;52677;50.898;10.854;2022-09-16T02:59:22;97805.13;;;10.06;95.55
65897;BME280;52677;50.898;10.854;2022-09-16T03:01:23;97801.97;;;10.00;96.25
65897;BME280;52677;50.898;10.854;2022-09-16T03:03:24;97800.78;;;9.94;96.89
65897;BME280;52677;50.898;10.854;2022-09-16T03:05:29;97798.78;;;9.88;98.18
65897;BME280;52677;50.898;10.854;2022-09-16T03:07:30;97796.41;;;9.86;98.02
65897;BME280;52677;50.898;10.854;2022-09-16T03:09:33;97788.47;;;9.81;98.52
65897;BME280;52677;50.898;10.854;2022-09-16T03:29:57;97792.06;;;9.92;97.77
65897;BME280;52677;50.898;10.854;2022-09-16T03:34:20;97790.50;;;9.88;97.95
65897;BME280;52677;50.898;10.854;2022-09-16T03:36:26;97794.41;;;9.83;98.92
65897;BME280;52677;50.898;10.854;2022-09-16T03:38:32;97797.16;;;9.83;98.45
65897;BME280;52677;50.898;10.854;2022-09-16T03:40:34;97798.75;;;9.80;98.39
65897;BME280;52677;50.898;10.854;2022-09-16T03:42:40;97799.94;;;9.79;98.16
65897;BME280;52677;50.898;10.854;2022-09-16T03:44:41;97795.56;;;9.75;98.45
65897;BME280;52677;50.898;10.854;2022-09-16T03:46:42;97803.44;;;9.73;98.63
65897;BME280;52677;50.898;10.854;2022-09-16T03:48:42;97797.88;;;9.62;98.30
65897;BME280;52677;50.898;10.854;2022-09-16T03:50:42;97797.06;;;9.54;98.44
65897;BME280;52677;50.898;10.854;2022-09-16T03:52:43;97791.16;;;9.52;98.57
65897;BME280;52677;50.898;10.854;2022-09-16T03:54:43;97793.06;;;9.45;98.74
65897;BME280;52677;50.898;10.854;2022-09-16T03:56:43;97788.31;;;9.42;99.48
65897;BME280;52677;50.898;10.854;2022-09-16T03:58:46;97790.69;;;9.40;99.34
65897;BME280;52677;50.898;10.854;2022-09-16T04:00:48;97796.19;;;9.40;99.54
65897;BME280;52677;50.898;10.854;2022-09-16T04:02:50;97782.78;;;9.42;98.83
65897;BME280;52677;50.898;10.854;2022-09-16T04:04:50;97782.44;;;9.43;99.11
65897;BME280;52677;50.898;10.854;2022-09-16T04:06:51;97775.72;;;9.48;99.23
65897;BME280;52677;50.898;10.854;2022-09-16T04:08:51;97777.31;;;9.49;98.35
65897;BME280;52677;50.898;10.854;2022-09-16T04:10:56;97781.66;;;9.50;98.48
65897;BME280;52677;50.898;10.854;2022-09-16T04:12:57;97785.59;;;9.49;98.90
65897;BME280;52677;50.898;10.854;2022-09-16T04:14:57;97796.25;;;9.50;98.87
65897;BME280;52677;50.898;10.854;2022-09-16T04:16:58;97795.44;;;9.50;99.40
65897;BME280;52677;50.898;10.854;2022-09-16T04:18:58;97788.34;;;9.49;99.20
65897;BME280;52677;50.898;10.854;2022-09-16T04:21:00;97785.19;;;9.50;98.96
65897;BME280;52677;50.898;10.854;2022-09-16T04:23:01;97788.75;;;9.47;99.39
65897;BME280;52677;50.898;10.854;2022-09-16T04:25:01;97792.69;;;9.50;100.00
65897;BME280;52677;50.898;10.854;2022-09-16T04:27:01;97791.16;;;9.52;100.00
65897;BME280;52677;50.898;10.854;2022-09-16T04:29:02;97784.84;;;9.52;99.41
65897;BME280;52677;50.898;10.854;2022-09-16T04:31:05;97795.50;;;9.57;99.49
65897;BME280;52677;50.898;10.854;2022-09-16T04:33:06;97791.97;;;9.60;99.24
65897;BME280;52677;50.898;10.854;2022-09-16T04:35:07;97791.19;;;9.67;98.80
65897;BME280;52677;50.898;10.854;2022-09-16T04:37:07;97793.94;;;9.67;98.78
65897;BME280;52677;50.898;10.854;2022-09-16T04:39:07;97793.16;;;9.66;98.80
65897;BME280;52677;50.898;10.854;2022-09-16T04:41:10;97789.22;;;9.67;99.00
65897;BME280;52677;50.898;10.854;2022-09-16T04:43:12;97782.09;;;9.66;99.41
65897;BME280;52677;50.898;10.854;2022-09-16T04:45:12;97788.81;;;9.65;98.94
65897;BME280;52677;50.898;10.854;2022-09-16T04:47:13;97780.94;;;9.67;98.94
65897;BME280;52677;50.898;10.854;2022-09-16T04:49:13;97780.53;;;9.65;98.98
65897;BME280;52677;50.898;10.854;2022-09-16T04:51:13;97777.41;;;9.70;98.31
65897;BME280;52677;50.898;10.854;2022-09-16T04:53:14;97785.28;;;9.72;98.40
65897;BME280;52677;50.898;10.854;2022-09-16T04:55:14;97776.22;;;9.71;98.32
65897;BME280;52677;50.898;10.854;2022-09-16T04:57:14;97771.50;;;9.68;98.19
65897;BME280;52677;50.898;10.854;2022-09-16T04:59:15;97779.75;;;9.65;98.80
65897;BME280;52677;50.898;10.854;2022-09-16T05:01:18;97779.75;;;9.61;98.77
65897;BME280;52677;50.898;10.854;2022-09-16T05:03:18;97779.31;;;9.59;98.67
65897;BME280;52677;50.898;10.854;2022-09-16T05:05:19;97780.88;;;9.53;99.13
65897;BME280;52677;50.898;10.854;2022-09-16T05:07:20;97787.97;;;9.50;99.51
65897;BME280;52677;50.898;10.854;2022-09-16T05:09:20;97792.28;;;9.44;100.00
65897;BME280;52677;50.898;10.854;2022-09-16T05:11:28;97790.69;;;9.40;100.00
65897;BME280;52677;50.898;10.854;2022-09-16T05:13:29;97792.25;;;9.37;100.00
65897;BME280;52677;50.898;10.854;2022-09-16T05:15:29;97789.84;;;9.32;100.00
65897;BME280;52677;50.898;10.854;2022-09-16T05:17:30;97789.06;;;9.32;100.00
65897;BME280;52677;50.898;10.854;2022-09-16T05:19:30;97794.97;;;9.30;100.00
65897;BME280;52677;50.898;10.854;2022-09-16T05:21:33;97802.47;;;9.33;100.00
65897;BME280;52677;50.898;10.854;2022-09-16T05:23:34;97795.75;;;9.34;100.00
65897;BME280;52677;50.898;10.854;2022-09-16T05:25:35;97798.53;;;9.34;100.00
65897;BME280;52677;50.898;10.854;2022-09-16T05:27:35;97795.75;;;9.34;100.00
65897;BME280;52677;50.898;10.854;2022-09-16T05:29:36;97793.00;;;9.31;99.99
65897;BME280;52677;50.898;10.854;2022-09-16T05:31:38;97800.50;;;9.30;100.00
65897;BME280;52677;50.898;10.854;2022-09-16T05:33:41;97801.66;;;9.29;100.00
65897;BME280;52677;50.898;10.854;2022-09-16T05:35:42;97796.91;;;9.26;100.00
65897;BME280;52677;50.898;10.854;2022-09-16T05:37:42;97785.09;;;9.29;100.00
65897;BME280;52677;50.898;10.854;2022-09-16T05:39:42;97796.94;;;9.33;100.00
65897;BME280;52677;50.898;10.854;2022-09-16T05:41:44;97798.53;;;9.34;100.00
65897;BME280;52677;50.898;10.854;2022-09-16T05:43:44;97797.00;;;9.40;100.00
65897;BME280;52677;50.898;10.854;2022-09-16T05:45:50;97801.75;;;9.43;99.97
65897;BME280;52677;50.898;10.854;2022-09-16T05:47:51;97799.78;;;9.44;99.87
65897;BME280;52677;50.898;10.854;2022-09-16T05:49:51;97791.13;;;9.49;100.00
65897;BME280;52677;50.898;10.854;2022-09-16T05:51:54;97790.72;;;9.50;99.79
65897;BME280;52677;50.898;10.854;2022-09-16T05:53:54;97799.44;;;9.56;99.73
65897;BME280;52677;50.898;10.854;2022-09-16T05:55:58;97793.56;;;9.61;99.08
65897;BME280;52677;50.898;10.854;2022-09-16T05:57:59;97794.34;;;9.65;98.78
65897;BME280;52677;50.898;10.854;2022-09-16T05:59:59;97797.53;;;9.71;98.54
65897;BME280;52677;50.898;10.854;2022-09-16T06:02:00;97805.03;;;9.74;97.60
65897;BME280;52677;50.898;10.854;2022-09-16T06:04:02;97796.78;;;9.81;96.77
65897;BME280;52677;50.898;10.854;2022-09-16T06:08:03;97798.38;;;9.89;96.68
65897;BME280;52677;50.898;10.854;2022-09-16T06:10:04;97801.56;;;9.95;95.88
65897;BME280;52677;50.898;10.854;2022-09-16T06:12:05;97794.84;;;9.99;95.86
65897;BME280;52677;50.898;10.854;2022-09-16T06:14:06;97790.53;;;10.05;95.05
65897;BME280;52677;50.898;10.854;2022-09-16T06:16:09;97787.38;;;10.07;95.17
65897;BME280;52677;50.898;10.854;2022-09-16T06:18:09;97788.16;;;10.07;94.73
65897;BME280;52677;50.898;10.854;2022-09-16T06:20:10;97788.56;;;10.06;95.04
65897;BME280;52677;50.898;10.854;2022-09-16T06:22:13;97783.44;;;10.04;94.74
65897;BME280;52677;50.898;10.854;2022-09-16T06:24:15;97781.06;;;10.03;94.69
65897;BME280;52677;50.898;10.854;2022-09-16T06:26:19;97785.78;;;10.02;94.39
65897;BME280;52677;50.898;10.854;2022-09-16T06:28:19;97785.78;;;10.02;94.50
65897;BME280;52677;50.898;10.854;2022-09-16T06:30:20;97779.09;;;10.07;93.64
65897;BME280;52677;50.898;10.854;2022-09-16T06:32:20;97787.00;;;10.12;93.71
65897;BME280;52677;50.898;10.854;2022-09-16T06:34:21;97791.72;;;10.15;93.18
65897;BME280;52677;50.898;10.854;2022-09-16T06:36:27;97790.19;;;10.25;93.54
65897;BME280;52677;50.898;10.854;2022-09-16T06:38:28;97782.31;;;10.34;92.81
65897;BME280;52677;50.898;10.854;2022-09-16T06:40:28;97785.91;;;10.45;91.94
65897;BME280;52677;50.898;10.854;2022-09-16T06:42:28;97781.94;;;10.64;91.28
65897;BME280;52677;50.898;10.854;2022-09-16T06:44:29;97778.00;;;10.65;90.64
65897;BME280;52677;50.898;10.854;2022-09-16T06:46:29;97778.78;;;10.69;90.91
65897;BME280;52677;50.898;10.854;2022-09-16T06:48:32;97777.19;;;10.72;90.08
65897;BME280;52677;50.898;10.854;2022-09-16T06:50:33;97783.13;;;10.84;88.88
65897;BME280;52677;50.898;10.854;2022-09-16T06:52:33;97774.41;;;10.89;87.96
65897;BME280;52677;50.898;10.854;2022-09-16T06:54:34;97781.94;;;10.89;87.74
65897;BME280;52677;50.898;10.854;2022-09-16T06:56:34;97789.44;;;10.95;86.25
65897;BME280;52677;50.898;10.854;2022-09-16T06:58:38;97788.63;;;11.06;85.52
65897;BME280;52677;50.898;10.854;2022-09-16T07:00:40;97783.09;;;10.98;85.47
65897;BME280;52677;50.898;10.854;2022-09-16T07:02:41;97798.53;;;11.00;85.31
65897;BME280;52677;50.898;10.854;2022-09-16T07:04:41;97801.31;;;10.96;85.77
65897;BME280;52677;50.898;10.854;2022-09-16T07:06:41;97795.78;;;10.96;86.13
65897;BME280;52677;50.898;10.854;2022-09-16T07:08:42;97794.19;;;10.91;85.94
65897;BME280;52677;50.898;10.854;2022-09-16T07:10:43;97789.84;;;11.01;86.14
65897;BME280;52677;50.898;10.854;2022-09-16T07:12:44;97796.53;;;11.11;87.28
65897;BME280;52677;50.898;10.854;2022-09-16T07:14:44;97791.78;;;11.08;85.42
65897;BME280;52677;50.898;10.854;2022-09-16T07:16:44;97793.78;;;11.11;86.77
65897;BME280;52677;50.898;10.854;2022-09-16T07:18:45;97789.81;;;11.12;84.95
65897;BME280;52677;50.898;10.854;2022-09-16T07:20:47;97797.31;;;11.15;85.13
65897;BME280;52677;50.898;10.854;2022-09-16T07:22:47;97788.22;;;11.14;85.71
65897;BME280;52677;50.898;10.854;2022-09-16T07:24:49;97790.22;;;11.14;85.69
65897;BME280;52677;50.898;10.854;2022-09-16T07:26:50;97792.56;;;11.15;85.77
65897;BME280;52677;50.898;10.854;2022-09-16T07:28:51;97790.22;;;11.17;83.91
65897;BME280;52677;50.898;10.854;2022-09-16T07:30:51;97796.88;;;11.38;82.82
65897;BME280;52677;50.898;10.854;2022-09-16T07:32:52;97790.16;;;11.42;83.64
65897;BME280;52677;50.898;10.854;2022-09-16T07:34:52;97802.03;;;11.43;83.82
65897;BME280;52677;50.898;10.854;2022-09-16T07:36:53;97800.81;;;11.44;83.26
65897;BME280;52677;50.898;10.854;2022-09-16T07:38:55;97799.25;;;11.39;84.14
65897;BME280;52677;50.898;10.854;2022-09-16T07:41:09;97798.06;;;11.37;83.21
65897;BME280;52677;50.898;10.854;2022-09-16T07:43:13;97808.34;;;11.43;82.92
65897;BME280;52677;50.898;10.854;2022-09-16T07:45:13;97802.00;;;11.46;81.80
65897;BME280;52677;50.898;10.854;2022-09-16T07:47:13;97815.06;;;11.46;81.75
65897;BME280;52677;50.898;10.854;2022-09-16T07:49:14;97803.59;;;11.51;80.11
65897;BME280;52677;50.898;10.854;2022-09-16T07:51:19;97801.22;;;11.42;79.37
65897;BME280;52677;50.898;10.854;2022-09-16T07:53:20;97815.88;;;11.36;81.72
65897;BME280;52677;50.898;10.854;2022-09-16T07:55:21;97830.13;;;11.34;81.85
65897;BME280;52677;50.898;10.854;2022-09-16T07:57:21;97807.16;;;11.41;79.79
65897;BME280;52677;50.898;10.854;2022-09-16T07:59:22;97820.19;;;11.47;80.83
65897;BME280;52677;50.898;10.854;2022-09-16T08:01:23;97826.09;;;11.60;80.99
65897;BME280;52677;50.898;10.854;2022-09-16T08:03:23;97821.34;;;11.68;81.37
65897;BME280;52677;50.898;10.854;2022-09-16T08:05:24;97814.16;;;11.88;79.92
65897;BME280;52677;50.898;10.854;2022-09-16T08:07:24;97815.66;;;12.03;80.00
65897;BME280;52677;50.898;10.854;2022-09-16T08:09:24;97813.28;;;12.09;79.22
65897;BME280;52677;50.898;10.854;2022-09-16T08:11:26;97807.25;;;12.21;79.53
65897;BME280;52677;50.898;10.854;2022-09-16T08:13:28;97813.53;;;12.29;79.71
65897;BME280;52677;50.898;10.854;2022-09-16T08:15:29;97818.66;;;12.37;78.11
65897;BME280;52677;50.898;10.854;2022-09-16T08:17:29;97820.59;;;12.41;77.82
65897;BME280;52677;50.898;10.854;2022-09-16T08:19:30;97812.72;;;12.35;77.74
65897;BME280;52677;50.898;10.854;2022-09-16T08:21:30;97822.28;;;12.24;77.39
65897;BME280;52677;50.898;10.854;2022-09-16T08:23:30;97809.69;;;12.12;76.90
65897;BME280;52677;50.898;10.854;2022-09-16T08:25:31;97825.22;;;11.95;76.91
65897;BME280;52677;50.898;10.854;2022-09-16T08:27:35;97815.69;;;12.00;76.63
65897;BME280;52677;50.898;10.854;2022-09-16T08:29:35;97810.16;;;11.96;76.12
65897;BME280;52677;50.898;10.854;2022-09-16T08:31:37;97820.88;;;11.87;75.62
65897;BME280;52677;50.898;10.854;2022-09-16T08:33:39;97826.81;;;11.93;75.60
65897;BME280;52677;50.898;10.854;2022-09-16T08:35:39;97820.88;;;11.87;75.62
65897;BME280;52677;50.898;10.854;2022-09-16T08:37:40;97826.44;;;11.87;76.57
65897;BME280;52677;50.898;10.854;2022-09-16T08:39:40;97811.38;;;11.92;77.07
65897;BME280;52677;50.898;10.854;2022-09-16T08:46:08;97823.56;;;12.08;75.64
65897;BME280;52677;50.898;10.854;2022-09-16T08:48:20;97821.59;;;12.09;75.30
65897;BME280;52677;50.898;10.854;2022-09-16T08:50:28;97810.88;;;12.11;73.92
65897;BME280;52677;50.898;10.854;2022-09-16T08:52:32;97820.34;;;12.17;74.82
65897;BME280;52677;50.898;10.854;2022-09-16T08:54:50;97825.81;;;12.31;75.01
65897;BME280;52677;50.898;10.854;2022-09-16T08:56:59;97816.97;;;12.51;74.71
65897;BME280;52677;50.898;10.854;2022-09-16T08:59:02;97811.22;;;12.79;73.38
65897;BME280;52677;50.898;10.854;2022-09-16T09:03:39;97809.69;;;13.19;71.65
65897;BME280;52677;50.898;10.854;2022-09-16T09:05:57;97801.59;;;13.36;70.51
65897;BME280;52677;50.898;10.854;2022-09-16T09:12:45;97808.81;;;13.64;69.77
65897;BME280;52677;50.898;10.854;2022-09-16T09:15:12;97810.75;;;13.70;70.16
65897;BME280;52677;50.898;10.854;2022-09-16T09:24:51;97811.22;;;13.28;70.63
65897;BME280;52677;50.898;10.854;2022-09-16T09:27:19;97808.81;;;13.30;68.94
65897;BME280;52677;50.898;10.854;2022-09-16T09:30:04;97805.22;;;13.29;70.36
65897;BME280;52677;50.898;10.854;2022-09-16T09:36:53;97802.28;;;13.47;69.45
65897;BME280;52677;50.898;10.854;2022-09-16T09:41:09;97801.47;;;13.50;70.06
65897;BME280;52677;50.898;10.854;2022-09-16T09:43:32;97810.41;;;13.27;68.58
65897;BME280;52677;50.898;10.854;2022-09-16T09:45:56;97798.91;;;13.29;69.47
65897;BME280;52677;50.898;10.854;2022-09-16T09:48:06;97807.56;;;13.34;71.17
65897;BME280;52677;50.898;10.854;2022-09-16T09:50:21;97800.41;;;13.37;70.70
65897;BME280;52677;50.898;10.854;2022-09-16T09:52:36;97802.38;;;13.36;69.51
65897;BME280;52677;50.898;10.854;2022-09-16T09:54:44;97800.03;;;13.35;70.49
65897;BME280;52677;50.898;10.854;2022-09-16T09:56:45;97804.03;;;13.30;70.57
65897;BME280;52677;50.898;10.854;2022-09-16T10:00:47;97802.47;;;13.29;70.29
65897;BME280;52677;50.898;10.854;2022-09-16T10:02:48;97794.13;;;13.29;69.06
65897;BME280;52677;50.898;10.854;2022-09-16T10:04:48;97803.88;;;13.44;68.83
65897;BME280;52677;50.898;10.854;2022-09-16T10:06:51;97804.31;;;13.43;68.39
65897;BME280;52677;50.898;10.854;2022-09-16T10:08:55;97796.84;;;13.36;68.36
65897;BME280;52677;50.898;10.854;2022-09-16T10:11:01;97788.19;;;13.27;68.78
65897;BME280;52677;50.898;10.854;2022-09-16T10:13:07;97785.22;;;13.45;70.25
65897;BME280;52677;50.898;10.854;2022-09-16T10:15:26;97781.09;;;13.60;70.41
65897;BME280;52677;50.898;10.854;2022-09-16T10:17:29;97772.06;;;13.83;69.44
65897;BME280;52677;50.898;10.854;2022-09-16T10:19:34;97769.88;;;13.98;69.38
65897;BME280;52677;50.898;10.854;2022-09-16T10:21:42;97765.78;;;14.06;69.21
65897;BME280;52677;50.898;10.854;2022-09-16T10:23:56;97776.28;;;14.25;67.78
65897;BME280;52677;50.898;10.854;2022-09-16T10:26:22;97762.25;;;14.32;65.99
65897;BME280;52677;50.898;10.854;2022-09-16T10:28:25;97755.31;;;14.44;66.81
65897;BME280;52677;50.898;10.854;2022-09-16T10:30:50;97758.38;;;14.53;66.77
65897;BME280;52677;50.898;10.854;2022-09-16T10:33:01;97766.31;;;14.55;64.96
65897;BME280;52677;50.898;10.854;2022-09-16T10:35:06;97765.47;;;14.58;66.69
65897;BME280;52677;50.898;10.854;2022-09-16T10:39:20;97755.56;;;14.57;66.94
65897;BME280;52677;50.898;10.854;2022-09-16T10:41:39;97750.63;;;14.38;64.15
65897;BME280;52677;50.898;10.854;2022-09-16T10:43:47;97757.28;;;14.47;65.02
65897;BME280;52677;50.898;10.854;2022-09-16T10:45:52;97753.94;;;14.56;63.97
65897;BME280;52677;50.898;10.854;2022-09-16T10:47:57;97750.34;;;14.59;62.22
65897;BME280;52677;50.898;10.854;2022-09-16T10:50:01;97760.69;;;14.58;60.65
65897;BME280;52677;50.898;10.854;2022-09-16T10:54:26;97739.69;;;14.54;63.63
65897;BME280;52677;50.898;10.854;2022-09-16T10:56:30;97746.00;;;14.58;63.60
65897;BME280;52677;50.898;10.854;2022-09-16T10:58:31;97752.16;;;14.69;61.53
65897;BME280;52677;50.898;10.854;2022-09-16T11:00:39;97743.22;;;14.81;64.32
65897;BME280;52677;50.898;10.854;2022-09-16T11:07:28;97776.50;;;14.65;67.44
65897;BME280;52677;50.898;10.854;2022-09-16T11:14:35;97808.50;;;12.06;80.17
65897;BME280;52677;50.898;10.854;2022-09-16T11:17:02;97820.25;;;11.22;84.16
65897;BME280;52677;50.898;10.854;2022-09-16T11:21:32;97817.13;;;10.60;88.85
65897;BME280;52677;50.898;10.854;2022-09-16T11:26:14;97831.34;;;10.44;93.32
65897;BME280;52677;50.898;10.854;2022-09-16T11:30:41;97806.44;;;10.51;93.51
65897;BME280;52677;50.898;10.854;2022-09-16T11:33:02;97800.13;;;10.61;94.24
65897;BME280;52677;50.898;10.854;2022-09-16T11:37:56;97801.28;;;11.14;95.70
65897;BME280;52677;50.898;10.854;2022-09-16T11:42:39;97793.66;;;11.57;94.14
65897;BME280;52677;50.898;10.854;2022-09-16T11:44:48;97790.41;;;11.76;92.93
65897;BME280;52677;50.898;10.854;2022-09-16T11:52:19;97777.13;;;12.27;89.35
65897;BME280;52677;50.898;10.854;2022-09-16T11:54:09;97781.28;;;12.49;92.88
65897;BME280;52677;50.898;10.854;2022-09-16T11:56:29;97768.53;;;12.62;88.69
65897;BME280;52677;50.898;10.854;2022-09-16T11:58:43;97769.22;;;12.74;88.08
65897;BME280;52677;50.898;10.854;2022-09-16T12:00:45;97771.16;;;12.80;87.31
65897;BME280;52677;50.898;10.854;2022-09-16T12:09:23;97745.84;;;13.16;81.40
65897;BME280;52677;50.898;10.854;2022-09-16T12:11:46;97741.25;;;13.36;81.33
65897;BME280;52677;50.898;10.854;2022-09-16T12:13:56;97739.56;;;13.46;80.12
65897;BME280;52677;50.898;10.854;2022-09-16T12:16:13;97744.97;;;13.57;77.79
65897;BME280;52677;50.898;10.854;2022-09-16T12:18:25;97730.19;;;13.67;76.51
65897;BME280;52677;50.898;10.854;2022-09-16T12:20:30;97745.78;;;13.88;77.06
65897;BME280;52677;50.898;10.854;2022-09-16T12:22:37;97740.47;;;14.00;77.64
65897;BME280;52677;50.898;10.854;2022-09-16T12:24:43;97743.69;;;14.22;76.74
65897;BME280;52677;50.898;10.854;2022-09-16T12:26:50;97733.25;;;14.30;75.52
65897;BME280;52677;50.898;10.854;2022-09-16T12:29:14;97731.00;;;14.21;73.25
65897;BME280;52677;50.898;10.854;2022-09-16T12:31:32;97756.78;;;14.25;73.32
65897;BME280;52677;50.898;10.854;2022-09-16T12:33:39;97732.00;;;14.34;73.08
65897;BME280;52677;50.898;10.854;2022-09-16T12:37:50;97731.63;;;14.05;70.21
65897;BME280;52677;50.898;10.854;2022-09-16T12:39:51;97725.09;;;14.19;70.00
65897;BME280;52677;50.898;10.854;2022-09-16T12:51:50;97738.56;;;14.21;70.57
65897;BME280;52677;50.898;10.854;2022-09-16T13:01:24;97733.47;;;13.24;71.06
65897;BME280;52677;50.898;10.854;2022-09-16T13:03:27;97733.53;;;13.13;71.75